createdAt,value
2018-02-10T00:03:12.000Z,1006.014
2018-02-10T00:13:12.000Z,1005.999
2018-02-10T00:23:12.000Z,1006.031
2018-02-10T00:33:12.000Z,1005.935
2018-02-10T00:43:12.000Z,1005.96
2018-02-10T00:53:12.000Z,1006.008
2018-02-10T01:03:13.000Z,1006.055
2018-02-10T01:13:12.000Z,1006.067
2018-02-10T01:23:12.000Z,1006.103
2018-02-10T01:33:12.000Z,1006.069
2018-02-10T01:43:12.000Z,1006.141
2018-02-10T01:53:12.000Z,1006.176
2018-02-10T02:03:12.000Z,1006.224
2018-02-10T02:13:12.000Z,1006.155
2018-02-10T02:23:12.000Z,1006.092
2018-02-10T02:33:12.000Z,1006.088
2018-02-10T02:43:12.000Z,1006.091
2018-02-10T02:53:12.000Z,1006.019
2018-02-10T03:03:12.000Z,1006.03
2018-02-10T03:13:12.000Z,1006.021
2018-02-10T03:23:12.000Z,1006.076
2018-02-10T03:33:12.000Z,1006.074
2018-02-10T03:43:13.000Z,1006.14
2018-02-10T03:53:12.000Z,1006.092
2018-02-10T04:03:13.000Z,1006.194
2018-02-10T04:13:13.000Z,1006.329
2018-02-10T04:23:13.000Z,1006.349
2018-02-10T04:33:13.000Z,1006.421
2018-02-10T04:43:13.000Z,1006.403
2018-02-10T04:53:13.000Z,1006.45
2018-02-10T05:03:13.000Z,1006.478
2018-02-10T05:13:13.000Z,1006.505
2018-02-10T05:23:13.000Z,1006.493
2018-02-10T05:33:13.000Z,1006.488
2018-02-10T05:43:13.000Z,1006.494
2018-02-10T05:53:13.000Z,1006.421
2018-02-10T06:03:13.000Z,1006.44
2018-02-10T06:13:13.000Z,1006.531
2018-02-10T06:23:13.000Z,1006.562
2018-02-10T06:33:13.000Z,1006.493
2018-02-10T06:43:13.000Z,1006.517
2018-02-10T06:53:13.000Z,1006.518
2018-02-10T07:03:13.000Z,1006.599
2018-02-10T07:13:13.000Z,1006.656
2018-02-10T07:23:13.000Z,1006.688
2018-02-10T07:33:13.000Z,1006.767
2018-02-10T07:43:13.000Z,1006.841
2018-02-10T07:53:13.000Z,1006.917
2018-02-10T08:03:13.000Z,1006.975
2018-02-10T08:13:13.000Z,1006.971
2018-02-10T08:23:13.000Z,1007.064
2018-02-10T08:33:13.000Z,1006.975
2018-02-10T08:43:13.000Z,1007.108
2018-02-10T08:53:13.000Z,1007.127
2018-02-10T09:03:13.000Z,1007.163
2018-02-10T09:13:13.000Z,1007.189
2018-02-10T09:23:16.000Z,1007.121
2018-02-10T09:33:13.000Z,1007.134
2018-02-10T09:43:13.000Z,1007.075
2018-02-10T09:53:13.000Z,1007.141
2018-02-10T10:03:13.000Z,1007.141
2018-02-10T10:13:13.000Z,1007.133
2018-02-10T10:23:13.000Z,1007.202
2018-02-10T10:33:13.000Z,1007.158
2018-02-10T10:43:13.000Z,1007.09
2018-02-10T10:53:13.000Z,1007.131
2018-02-10T11:03:17.000Z,1007.203
2018-02-10T11:13:13.000Z,1007.179
2018-02-10T11:23:13.000Z,1007.135
2018-02-10T11:33:13.000Z,1007.166
2018-02-10T11:43:13.000Z,1007.174
2018-02-10T11:53:17.000Z,1007.048
2018-02-10T12:03:13.000Z,1006.96
2018-02-10T12:13:13.000Z,1006.919
2018-02-10T12:23:14.000Z,1006.738
2018-02-10T12:33:14.000Z,1006.748
2018-02-10T12:43:14.000Z,1006.7
2018-02-10T12:53:14.000Z,1006.66
2018-02-10T13:03:14.000Z,1006.634
2018-02-10T13:13:14.000Z,1006.638
2018-02-10T13:23:14.000Z,1006.521
2018-02-10T13:33:14.000Z,1006.45
2018-02-10T13:43:14.000Z,1006.273
2018-02-10T13:53:14.000Z,1006.21
2018-02-10T14:03:14.000Z,1006.305
2018-02-10T14:13:14.000Z,1006.248
2018-02-10T14:23:14.000Z,1006.204
2018-02-10T14:33:14.000Z,1006.134
2018-02-10T14:43:14.000Z,1006.215
2018-02-10T14:53:14.000Z,1006.219
2018-02-10T15:03:14.000Z,1006.185
2018-02-10T15:13:16.000Z,1006.138
2018-02-10T15:23:14.000Z,1006.024
2018-02-10T15:33:14.000Z,1006.054
2018-02-10T15:43:18.000Z,1006.137
2018-02-10T15:53:14.000Z,1006.121
2018-02-10T16:03:14.000Z,1006.101
2018-02-10T16:13:14.000Z,1005.953
2018-02-10T16:23:14.000Z,1005.829
2018-02-10T16:33:14.000Z,1005.748
2018-02-10T16:43:15.000Z,1005.675
2018-02-10T16:53:14.000Z,1005.603
2018-02-10T17:03:14.000Z,1005.53
2018-02-10T17:13:14.000Z,1005.528
2018-02-10T17:23:14.000Z,1005.448
2018-02-10T17:33:14.000Z,1005.378
2018-02-10T17:43:14.000Z,1005.394
2018-02-10T17:53:14.000Z,1005.268
2018-02-10T18:03:15.000Z,1005.285
2018-02-10T18:13:14.000Z,1005.205
2018-02-10T18:23:14.000Z,1005.006
2018-02-10T18:33:14.000Z,1004.952
2018-02-10T18:43:14.000Z,1004.908
2018-02-10T18:53:14.000Z,1004.828
2018-02-10T19:03:14.000Z,1004.765
2018-02-10T19:13:14.000Z,1004.74
2018-02-10T19:23:14.000Z,1004.573
2018-02-10T19:33:14.000Z,1004.435
2018-02-10T19:43:14.000Z,1004.343
2018-02-10T19:53:16.000Z,1004.18
2018-02-10T20:03:15.000Z,1004.128
2018-02-10T20:13:14.000Z,1004.086
2018-02-10T20:23:14.000Z,1003.972
2018-02-10T20:33:14.000Z,1003.855
2018-02-10T20:43:15.000Z,1003.755
2018-02-10T20:53:15.000Z,1003.439
2018-02-10T21:03:15.000Z,1003.325
2018-02-10T21:13:15.000Z,1003.122
2018-02-10T21:23:15.000Z,1002.89
2018-02-10T21:33:15.000Z,1002.861
2018-02-10T21:43:15.000Z,1002.897
2018-02-10T21:53:15.000Z,1002.739
2018-02-10T22:03:15.000Z,1002.524
2018-02-10T22:13:15.000Z,1002.182
2018-02-10T22:23:15.000Z,1001.996
2018-02-10T22:33:15.000Z,1001.789
2018-02-10T22:43:15.000Z,1001.501
2018-02-10T22:53:15.000Z,1001.277
2018-02-10T23:03:15.000Z,1000.998
2018-02-10T23:13:15.000Z,1000.76
2018-02-10T23:23:15.000Z,1000.527
2018-02-10T23:33:15.000Z,1000.333
2018-02-10T23:43:15.000Z,1000.2
2018-02-10T23:53:15.000Z,1000.042
